createdAt,value
2019-04-03T00:01:49.231Z,45.22
2019-04-03T00:04:20.923Z,46.57
2019-04-03T00:06:52.800Z,45.85
2019-04-03T00:09:24.418Z,45.27
2019-04-03T00:11:56.058Z,45.87
2019-04-03T00:14:27.735Z,45.99
2019-04-03T00:16:59.222Z,46.59
2019-04-03T00:19:30.705Z,46.41
2019-04-03T00:22:03.297Z,46.06
2019-04-03T00:24:35.913Z,46.69
2019-04-03T00:27:07.656Z,46.54
2019-04-03T00:29:39.242Z,46.33
2019-04-03T00:32:10.967Z,46.96
2019-04-03T00:34:42.620Z,46.93
2019-04-03T00:37:14.221Z,45.91
2019-04-03T00:39:45.762Z,46.82
2019-04-03T00:42:17.379Z,46.55
2019-04-03T00:44:49.000Z,46.89
2019-04-03T00:47:20.560Z,47.64
2019-04-03T00:49:52.113Z,47.58
2019-04-03T00:52:23.825Z,47.52
2019-04-03T00:54:56.515Z,47.31
2019-04-03T00:57:28.651Z,46.49
2019-04-03T01:00:00.176Z,47.17
2019-04-03T01:02:31.770Z,47.12
2019-04-03T01:05:04.105Z,47.33
2019-04-03T01:07:35.717Z,48.13
2019-04-03T01:10:08.474Z,48.16
2019-04-03T01:12:40.010Z,48.26
2019-04-03T01:15:11.788Z,48.56
2019-04-03T01:17:43.440Z,48.36
2019-04-03T01:20:16.555Z,47.93
2019-04-03T01:22:48.257Z,48.48
2019-04-03T01:25:20.003Z,48.18
2019-04-03T01:27:51.508Z,47.65
2019-04-03T01:30:24.665Z,48.67
2019-04-03T01:32:56.315Z,48.62
2019-04-03T01:35:27.948Z,48.47
2019-04-03T01:37:59.679Z,48.41
2019-04-03T01:40:31.386Z,48.71
2019-04-03T01:43:02.878Z,48.68
2019-04-03T01:45:34.398Z,48.28
2019-04-03T01:48:06.113Z,48.20
2019-04-03T01:50:38.767Z,48.56
2019-04-03T01:53:10.990Z,48.65
2019-04-03T01:55:42.688Z,47.75
2019-04-03T01:58:14.322Z,48.63
2019-04-03T02:00:45.794Z,47.83
2019-04-03T02:03:17.325Z,49.64
2019-04-03T02:05:48.887Z,49.28
2019-04-03T02:08:20.797Z,48.79
2019-04-03T02:10:52.609Z,49.09
2019-04-03T02:13:24.203Z,49.26
2019-04-03T02:15:55.835Z,48.96
2019-04-03T02:18:27.417Z,49.11
2019-04-03T02:20:59.430Z,49.45
2019-04-03T02:23:31.260Z,49.54
2019-04-03T02:26:03.114Z,48.65
2019-04-03T02:28:35.254Z,49.29
2019-04-03T02:31:07.113Z,48.19
2019-04-03T02:33:38.691Z,49.34
2019-04-03T02:36:12.210Z,49.14
2019-04-03T02:38:43.550Z,49.77
2019-04-03T02:41:16.318Z,49.26
2019-04-03T02:43:47.859Z,50.07
2019-04-03T02:46:19.567Z,49.77
2019-04-03T02:48:51.362Z,49.26
2019-04-03T02:51:23.051Z,49.20
2019-04-03T02:53:54.555Z,50.01
2019-04-03T02:56:26.172Z,50.04
2019-04-03T02:58:57.686Z,50.06
2019-04-03T03:01:29.254Z,50.04
2019-04-03T03:04:01.003Z,49.40
2019-04-03T03:06:33.641Z,49.83
2019-04-03T03:09:06.396Z,49.83
2019-04-03T03:11:37.942Z,49.62
2019-04-03T03:14:09.696Z,48.83
2019-04-03T03:16:41.592Z,50.05
2019-04-03T03:19:14.055Z,50.19
2019-04-03T03:21:46.292Z,50.13
2019-04-03T03:24:17.998Z,50.05
2019-04-03T03:26:49.717Z,50.32
2019-04-03T03:29:25.083Z,50.38
2019-04-03T03:32:12.735Z,50.76
2019-04-03T03:34:49.307Z,50.62
2019-04-03T03:37:03.329Z,50.04
2019-04-03T03:39:35.107Z,50.83
2019-04-03T03:42:06.666Z,50.44
2019-04-03T03:44:40.696Z,50.85
2019-04-03T03:47:11.502Z,51.02
2019-04-03T03:49:43.174Z,50.02
2019-04-03T03:52:15.655Z,50.70
2019-04-03T03:54:49.635Z,51.11
2019-04-03T03:57:20.394Z,51.32
2019-04-03T03:59:52.808Z,51.38
2019-04-03T04:02:24.811Z,51.17
2019-04-03T04:04:56.456Z,51.19
2019-04-03T04:07:28.077Z,51.82
2019-04-03T04:09:59.669Z,52.15
2019-04-03T04:12:31.318Z,51.52
2019-04-03T04:15:03.258Z,51.92
2019-04-03T04:17:35.245Z,51.99
2019-04-03T04:20:07.705Z,52.03
2019-04-03T04:22:39.698Z,52.31
2019-04-03T04:25:11.332Z,52.04
2019-04-03T04:27:42.968Z,52.35
2019-04-03T04:30:15.801Z,53.10
2019-04-03T04:32:47.631Z,52.13
2019-04-03T04:35:21.490Z,52.62
2019-04-03T04:37:55.401Z,52.20
2019-04-03T04:40:25.659Z,52.50
2019-04-03T04:42:57.198Z,52.27
2019-04-03T04:45:28.619Z,52.67
2019-04-03T04:48:00.302Z,52.76
2019-04-03T04:50:31.951Z,52.53
2019-04-03T04:53:03.481Z,52.76
2019-04-03T04:55:35.927Z,52.70
2019-04-03T04:58:07.724Z,53.04
2019-04-03T05:00:39.474Z,53.41
2019-04-03T05:03:11.048Z,53.09
2019-04-03T05:05:42.775Z,53.04
2019-04-03T05:08:14.346Z,53.10
2019-04-03T05:10:48.634Z,53.24
2019-04-03T05:13:19.297Z,53.28
2019-04-03T05:15:53.197Z,53.47
2019-04-03T05:18:24.027Z,53.57
2019-04-03T05:20:55.646Z,53.19
2019-04-03T05:23:27.792Z,53.28
2019-04-03T05:26:01.934Z,53.27
2019-04-03T05:28:34.067Z,53.20
2019-04-03T05:31:07.953Z,52.96
2019-04-03T05:33:41.226Z,53.10
2019-04-03T05:36:12.950Z,53.53
2019-04-03T05:38:44.418Z,52.84
2019-04-03T05:41:16.102Z,53.25
2019-04-03T05:43:47.560Z,52.81
2019-04-03T05:46:19.882Z,53.11
2019-04-03T05:48:51.484Z,52.59
2019-04-03T05:51:23.024Z,53.24
2019-04-03T05:53:54.629Z,52.62
2019-04-03T05:56:26.184Z,52.91
2019-04-03T05:59:01.335Z,52.22
2019-04-03T06:01:31.343Z,52.04
2019-04-03T06:04:03.055Z,50.81
2019-04-03T06:06:34.919Z,52.04
2019-04-03T06:09:07.764Z,51.73
2019-04-03T06:11:40.765Z,51.17
2019-04-03T06:14:12.848Z,51.74
2019-04-03T06:16:44.470Z,51.43
2019-04-03T06:19:16.167Z,50.67
2019-04-03T06:21:48.308Z,49.84
2019-04-03T06:24:20.479Z,49.68
2019-04-03T06:26:52.103Z,50.15
2019-04-03T06:29:23.830Z,49.43
2019-04-03T06:31:55.915Z,49.42
2019-04-03T06:34:28.887Z,49.50
2019-04-03T06:37:00.650Z,48.52
2019-04-03T06:39:32.369Z,49.14
2019-04-03T06:42:03.943Z,47.86
2019-04-03T06:44:35.603Z,48.51
2019-04-03T06:47:07.059Z,47.26
2019-04-03T06:49:40.255Z,47.51
2019-04-03T06:52:13.740Z,47.33
2019-04-03T06:54:45.286Z,47.73
2019-04-03T06:57:16.987Z,47.73
2019-04-03T06:59:48.934Z,46.74
2019-04-03T07:02:20.759Z,46.73
2019-04-03T07:04:52.394Z,47.38
2019-04-03T07:07:32.946Z,46.98
2019-04-03T07:09:57.366Z,46.20
2019-04-03T07:12:29.352Z,46.36
2019-04-03T07:15:01.036Z,46.00
2019-04-03T07:17:33.012Z,46.31
2019-04-03T07:20:13.606Z,46.08
2019-04-03T07:22:39.758Z,45.89
2019-04-03T07:25:11.538Z,45.26
2019-04-03T07:27:43.226Z,44.87
2019-04-03T07:30:17.035Z,45.13
2019-04-03T07:32:48.423Z,44.82
2019-04-03T07:35:20.063Z,45.12
2019-04-03T07:37:52.050Z,44.47
2019-04-03T07:40:23.822Z,44.59
2019-04-03T07:42:56.334Z,44.88
2019-04-03T07:45:28.792Z,44.79
2019-04-03T07:48:01.299Z,44.32
2019-04-03T07:50:36.109Z,44.25
2019-04-03T07:53:06.683Z,44.17
2019-04-03T07:55:39.856Z,44.12
2019-04-03T07:58:11.434Z,43.61
2019-04-03T08:00:43.084Z,43.52
2019-04-03T08:03:14.857Z,42.50
2019-04-03T08:05:46.616Z,43.24
2019-04-03T08:08:18.203Z,42.89
2019-04-03T08:10:49.804Z,42.16
2019-04-03T08:13:21.403Z,42.45
2019-04-03T08:15:53.066Z,42.07
2019-04-03T08:18:26.501Z,42.69
2019-04-03T08:21:01.539Z,42.31
2019-04-03T08:23:31.714Z,42.15
2019-04-03T08:26:04.078Z,41.75
2019-04-03T08:28:35.664Z,41.39
2019-04-03T08:31:10.456Z,40.64
2019-04-03T08:33:40.632Z,41.02
2019-04-03T08:36:23.132Z,40.82
2019-04-03T08:38:45.783Z,41.39
2019-04-03T08:41:17.587Z,41.03
2019-04-03T08:43:49.386Z,41.17
2019-04-03T08:46:20.890Z,40.71
2019-04-03T08:48:54.704Z,40.60
2019-04-03T08:51:25.802Z,40.64
2019-04-03T08:53:57.577Z,40.11
2019-04-03T08:56:29.478Z,40.15
2019-04-03T08:59:01.115Z,40.03
2019-04-03T09:01:35.944Z,39.53
2019-04-03T09:04:06.106Z,39.51
2019-04-03T09:06:37.732Z,39.35
2019-04-03T09:09:11.517Z,38.64
2019-04-03T09:11:43.592Z,38.99
2019-04-03T09:14:15.350Z,39.29
2019-04-03T09:16:47.033Z,39.51
2019-04-03T09:19:18.972Z,39.59
2019-04-03T09:21:51.663Z,39.81
2019-04-03T09:24:23.324Z,39.16
2019-04-03T09:26:54.886Z,38.49
2019-04-03T09:29:26.823Z,38.74
2019-04-03T09:31:58.487Z,38.75
2019-04-03T09:34:32.252Z,38.16
2019-04-03T09:37:06.378Z,37.93
2019-04-03T09:39:37.711Z,37.47
2019-04-03T09:42:09.470Z,37.75
2019-04-03T09:44:41.121Z,37.79
2019-04-03T09:47:12.863Z,37.85
2019-04-03T09:49:44.858Z,37.80
2019-04-03T09:52:16.475Z,37.44
2019-04-03T09:54:48.021Z,37.11
2019-04-03T09:57:19.915Z,36.76
2019-04-03T09:59:51.789Z,37.35
2019-04-03T10:02:23.460Z,37.26
2019-04-03T10:04:57.332Z,36.84
2019-04-03T10:07:30.970Z,37.37
2019-04-03T10:10:02.005Z,37.09
2019-04-03T10:12:35.034Z,36.81
2019-04-03T10:15:08.116Z,35.86
2019-04-03T10:17:39.748Z,35.79
2019-04-03T10:20:11.375Z,36.81
2019-04-03T10:22:43.019Z,36.17
2019-04-03T10:25:14.634Z,35.93
2019-04-03T11:23:58.395Z,35.06
2019-04-03T11:26:30.136Z,34.85
2019-04-03T11:29:02.123Z,35.28
2019-04-03T11:31:40.670Z,34.69
2019-04-03T11:34:07.258Z,34.50
2019-04-03T11:36:39.319Z,35.57
2019-04-03T11:39:15.043Z,33.99
2019-04-03T11:41:43.981Z,36.16
2019-04-03T11:44:15.456Z,35.03
2019-04-03T11:46:47.174Z,33.81
2019-04-03T11:49:21.411Z,34.13
2019-04-03T11:51:53.072Z,33.67
2019-04-03T11:54:25.135Z,34.41
2019-04-03T11:56:57.218Z,34.17
2019-04-03T11:59:29.348Z,34.14
2019-04-03T12:02:01.160Z,33.72
2019-04-03T12:04:32.881Z,33.53
2019-04-03T12:07:04.497Z,32.93
2019-04-03T12:09:36.226Z,33.50
2019-04-03T12:12:10.501Z,33.78
2019-04-03T12:14:41.384Z,32.46
2019-04-03T12:17:13.499Z,32.11
2019-04-03T12:19:46.098Z,32.34
2019-04-03T12:22:17.845Z,33.22
2019-04-03T12:24:49.581Z,31.76
2019-04-03T12:27:21.220Z,31.91
2019-04-03T12:29:54.581Z,32.83
2019-04-03T12:32:36.667Z,31.86
2019-04-03T12:34:59.464Z,32.25
2019-04-03T12:37:31.363Z,30.57
2019-04-03T12:40:03.579Z,30.74
2019-04-03T12:42:35.714Z,30.08
2019-04-03T12:45:07.915Z,30.68
2019-04-03T12:47:42.620Z,30.37
2019-04-03T12:50:13.503Z,29.71
2019-04-03T12:52:45.988Z,29.29
2019-04-03T12:55:17.554Z,29.67
2019-04-03T12:57:49.530Z,29.02
2019-04-03T13:00:23.141Z,27.71
2019-04-03T13:02:55.395Z,27.92
2019-04-03T13:05:27.481Z,27.15
2019-04-03T13:07:59.818Z,26.59
2019-04-03T13:10:41.357Z,27.08
2019-04-03T13:13:05.627Z,28.36
2019-04-03T13:15:38.090Z,26.48
2019-04-03T13:18:10.251Z,25.44
2019-04-03T13:20:43.401Z,25.84
2019-04-03T13:23:15.588Z,26.37
2019-04-03T13:25:47.814Z,25.57
2019-04-03T13:28:19.640Z,25.15
2019-04-03T13:30:51.259Z,23.99
2019-04-03T13:33:22.767Z,24.27
2019-04-03T13:35:54.583Z,25.85
2019-04-03T13:38:28.445Z,25.94
2019-04-03T13:41:00.545Z,24.01
2019-04-03T13:43:32.544Z,25.49
2019-04-03T13:46:05.036Z,24.94
2019-04-03T13:48:37.870Z,24.74
2019-04-03T13:51:12.210Z,23.36
2019-04-03T13:53:43.110Z,23.99
2019-04-03T13:56:15.016Z,23.92
2019-04-03T13:58:47.004Z,23.77
2019-04-03T14:01:19.667Z,24.02
2019-04-03T14:03:51.658Z,23.40
2019-04-03T14:06:25.087Z,23.52
2019-04-03T14:08:57.340Z,23.31
2019-04-03T14:11:31.258Z,23.82
2019-04-03T14:14:03.313Z,22.78
2019-04-03T14:16:35.570Z,22.10
2019-04-03T14:19:07.295Z,23.04
2019-04-03T14:21:39.023Z,22.30
2019-04-03T14:24:10.527Z,22.10
2019-04-03T14:26:44.301Z,22.74
2019-04-03T14:29:15.822Z,22.70
2019-04-03T14:31:48.552Z,22.26
2019-04-03T14:34:21.231Z,22.29
2019-04-03T14:36:53.085Z,23.47
2019-04-03T14:39:25.067Z,22.26
2019-04-03T14:41:56.659Z,22.69
2019-04-03T14:44:28.417Z,22.63
2019-04-03T14:47:00.245Z,23.12
2019-04-03T14:49:33.275Z,22.63
2019-04-03T14:52:05.272Z,23.42
2019-04-03T14:54:37.153Z,23.07
2019-04-03T14:57:19.749Z,23.17
2019-04-03T14:59:43.124Z,23.59
2019-04-03T15:02:14.770Z,23.50
2019-04-03T15:04:46.617Z,23.62
2019-04-03T15:07:18.922Z,23.70
2019-04-03T15:09:50.480Z,23.72
2019-04-03T15:12:22.230Z,24.77
2019-04-03T15:14:54.510Z,25.23
2019-04-03T15:17:26.991Z,25.34
2019-04-03T15:19:58.593Z,25.07
2019-04-03T15:22:32.477Z,25.55
2019-04-03T15:25:03.423Z,25.47
2019-04-03T15:27:35.040Z,26.76
2019-04-03T15:30:11.224Z,26.96
2019-04-03T15:32:42.935Z,27.04
2019-04-03T15:35:14.858Z,27.62
2019-04-03T15:37:46.481Z,27.20
2019-04-03T15:40:18.027Z,27.66
2019-04-03T15:42:49.742Z,27.65
2019-04-03T15:45:22.468Z,28.11
2019-04-03T15:47:57.096Z,27.97
2019-04-03T15:50:30.192Z,28.44
2019-04-03T15:53:01.317Z,29.01
2019-04-03T15:55:33.000Z,28.82
2019-04-03T15:58:04.914Z,29.01
2019-04-03T16:00:37.070Z,29.39
2019-04-03T16:03:08.756Z,29.94
2019-04-03T16:05:40.816Z,29.92
2019-04-03T16:08:13.320Z,29.74
2019-04-03T16:10:45.561Z,30.00
2019-04-03T16:13:17.752Z,30.37
2019-04-03T16:15:49.327Z,30.40
2019-04-03T16:18:21.268Z,30.65
2019-04-03T16:20:52.866Z,30.64
2019-04-03T16:23:24.551Z,30.88
2019-04-03T16:25:56.508Z,31.06
2019-04-03T16:28:28.615Z,31.28
2019-04-03T16:31:00.467Z,31.15
2019-04-03T16:33:35.075Z,31.86
2019-04-03T16:36:06.901Z,32.10
2019-04-03T16:38:39.190Z,32.19
2019-04-03T16:41:11.794Z,32.03
2019-04-03T16:43:43.624Z,32.99
2019-04-03T16:46:15.675Z,32.67
2019-04-03T16:48:49.904Z,32.70
2019-04-03T16:51:21.406Z,32.56
2019-04-03T16:53:53.297Z,33.13
2019-04-03T16:56:25.253Z,33.34
2019-04-03T16:58:59.760Z,33.34
2019-04-03T17:01:30.706Z,33.86
2019-04-03T17:04:03.930Z,34.58
2019-04-03T17:06:35.651Z,33.98
2019-04-03T17:09:08.790Z,33.56
2019-04-03T17:11:43.488Z,34.24
2019-04-03T17:14:13.651Z,34.73
2019-04-03T17:16:46.282Z,35.11
2019-04-03T17:19:18.912Z,35.53
2019-04-03T17:21:50.770Z,35.37
2019-04-03T17:24:23.567Z,35.36
2019-04-03T17:26:58.297Z,35.46
2019-04-03T17:29:29.228Z,35.67
2019-04-03T17:32:01.014Z,35.78
2019-04-03T17:34:33.087Z,35.84
2019-04-03T17:37:04.938Z,36.23
2019-04-03T17:39:37.850Z,36.44
2019-04-03T17:42:09.497Z,36.59
2019-04-03T17:44:42.868Z,36.75
2019-04-03T17:47:14.661Z,37.52
2019-04-03T17:49:46.288Z,38.03
2019-04-03T17:52:18.049Z,37.18
2019-04-03T17:54:49.615Z,37.54
2019-04-03T17:57:21.142Z,38.18
2019-04-03T17:59:52.769Z,36.81
2019-04-03T18:02:24.697Z,37.90
2019-04-03T18:04:57.793Z,37.30
2019-04-03T18:07:29.331Z,38.30
2019-04-03T18:10:01.162Z,37.96
2019-04-03T18:12:32.962Z,37.54
2019-04-03T18:15:07.862Z,37.47
2019-04-03T18:17:39.686Z,38.43
2019-04-03T18:20:13.287Z,39.47
2019-04-03T18:22:44.766Z,39.29
2019-04-03T18:25:16.244Z,38.31
2019-04-03T18:27:47.810Z,38.49
2019-04-03T18:30:19.693Z,39.21
2019-04-03T18:32:51.393Z,38.89
2019-04-03T18:35:25.444Z,38.69
2019-04-03T18:37:56.249Z,38.44
2019-04-03T18:40:32.841Z,38.87
2019-04-03T18:43:16.888Z,38.73
2019-04-03T18:45:58.478Z,39.50
2019-04-03T18:48:34.589Z,39.02
2019-04-03T18:51:07.224Z,39.28
2019-04-03T18:53:40.647Z,39.24
2019-04-03T18:56:13.772Z,39.39
2019-04-03T18:58:53.130Z,39.78
2019-04-03T19:01:26.279Z,39.47
2019-04-03T19:03:57.871Z,40.35
2019-04-03T19:06:29.523Z,40.67
2019-04-03T19:09:09.771Z,40.70
2019-04-03T19:11:36.051Z,39.44
2019-04-03T19:14:07.844Z,39.42
2019-04-03T19:16:45.266Z,38.87
2019-04-03T19:19:16.326Z,39.89
2019-04-03T19:21:47.985Z,39.89
2019-04-03T19:24:19.574Z,39.57
2019-04-03T19:26:51.202Z,39.96
2019-04-03T19:29:22.891Z,40.33
2019-04-03T19:31:55.356Z,39.78
2019-04-03T19:34:27.040Z,39.77
2019-04-03T19:36:58.855Z,40.16
2019-04-03T19:39:30.603Z,40.24
2019-04-03T19:42:02.566Z,40.43
2019-04-03T19:44:34.117Z,40.38
2019-04-03T19:47:06.927Z,40.47
2019-04-03T19:49:40.198Z,41.39
2019-04-03T19:52:13.072Z,40.51
2019-04-03T19:54:45.175Z,41.59
2019-04-03T19:57:16.831Z,40.32
2019-04-03T19:59:49.093Z,41.77
2019-04-03T20:02:21.259Z,41.82
2019-04-03T20:04:52.851Z,41.22
2019-04-03T20:07:24.835Z,40.89
2019-04-03T20:09:58.364Z,41.52
2019-04-03T20:12:30.478Z,41.31
2019-04-03T20:15:02.746Z,41.63
2019-04-03T20:17:34.765Z,41.65
2019-04-03T20:20:07.684Z,41.29
2019-04-03T20:22:57.843Z,41.78
2019-04-03T20:25:35.688Z,42.71
2019-04-03T20:28:07.949Z,42.01
2019-04-03T20:30:39.589Z,42.63
2019-04-03T20:33:11.717Z,41.77
2019-04-03T20:35:43.749Z,42.64
2019-04-03T20:38:15.640Z,42.90
2019-04-03T20:40:47.274Z,42.93
2019-04-03T20:43:18.888Z,42.28
2019-04-03T20:45:50.389Z,42.84
2019-04-03T20:48:22.970Z,43.24
2019-04-03T20:50:54.483Z,42.50
2019-04-03T20:53:26.017Z,43.02
2019-04-03T20:55:58.087Z,43.38
2019-04-03T20:58:30.479Z,43.11
2019-04-03T21:01:06.839Z,43.76
2019-04-03T21:03:35.284Z,44.28
2019-04-03T21:06:06.724Z,43.61
2019-04-03T21:08:38.345Z,43.77
2019-04-03T21:11:09.896Z,43.99
2019-04-03T21:13:42.536Z,44.23
2019-04-03T21:16:15.013Z,43.49
2019-04-03T21:18:47.667Z,44.17
2019-04-03T21:21:19.523Z,43.91
2019-04-03T21:23:50.999Z,44.31
2019-04-03T21:26:22.625Z,44.26
2019-04-03T21:28:54.159Z,43.96
2019-04-03T21:31:26.038Z,44.19
2019-04-03T21:33:58.278Z,43.95
2019-04-03T21:36:29.893Z,44.73
2019-04-03T21:39:01.462Z,44.62
2019-04-03T21:41:34.668Z,44.34
2019-04-03T21:44:06.205Z,44.95
2019-04-03T21:46:39.672Z,45.27
2019-04-03T21:49:11.908Z,45.53
2019-04-03T21:51:43.541Z,45.44
2019-04-03T21:54:15.096Z,44.88
2019-04-03T21:56:46.670Z,45.26
2019-04-03T21:59:18.222Z,45.17
2019-04-03T22:01:49.888Z,44.87
2019-04-03T22:04:22.787Z,45.86
2019-04-03T22:06:57.633Z,45.70
2019-04-03T22:09:28.843Z,45.12
2019-04-03T22:12:01.577Z,45.67
2019-04-03T22:14:34.217Z,45.28
2019-04-03T22:17:05.815Z,45.72
2019-04-03T22:19:37.421Z,46.56
2019-04-03T22:22:08.997Z,46.29
2019-04-03T22:24:40.711Z,46.23
2019-04-03T22:27:12.175Z,46.38
2019-04-03T22:29:44.080Z,46.34
2019-04-03T22:32:15.626Z,46.77
2019-04-03T22:34:47.249Z,46.18
2019-04-03T22:37:18.940Z,47.06
2019-04-03T22:39:50.789Z,45.82
2019-04-03T22:42:22.235Z,47.22
2019-04-03T22:44:53.874Z,46.95
2019-04-03T22:47:25.753Z,47.46
2019-04-03T22:49:57.443Z,46.80
2019-04-03T22:52:29.056Z,47.13
2019-04-03T22:55:00.766Z,46.57
2019-04-03T22:57:32.619Z,46.26
2019-04-03T23:00:06.647Z,46.70
2019-04-03T23:02:38.858Z,47.60
2019-04-03T23:05:10.455Z,47.51
2019-04-03T23:07:42.430Z,47.09
2019-04-03T23:10:14.014Z,48.11
2019-04-03T23:12:45.831Z,47.72
2019-04-03T23:15:17.483Z,47.26
2019-04-03T23:17:49.250Z,47.73
2019-04-03T23:20:22.164Z,47.60
2019-04-03T23:22:56.344Z,47.45
2019-04-03T23:25:27.831Z,48.22
2019-04-03T23:28:02.990Z,48.02
2019-04-03T23:30:35.511Z,47.93
2019-04-03T23:33:08.292Z,48.99
2019-04-03T23:35:40.574Z,49.14
2019-04-03T23:38:12.220Z,48.62
2019-04-03T23:40:44.037Z,48.98
2019-04-03T23:43:15.656Z,48.66
2019-04-03T23:45:47.301Z,48.70
2019-04-03T23:48:20.043Z,48.99
2019-04-03T23:50:52.721Z,48.92
2019-04-03T23:53:24.820Z,49.69
2019-04-03T23:55:56.522Z,49.45
2019-04-03T23:58:28.129Z,49.27
